createdAt,value
2022-10-23T06:14:13.423Z,65.10
2022-10-23T06:16:51.858Z,58.90
2022-10-23T06:19:29.380Z,46.47
2022-10-23T06:22:09.450Z,48.83
2022-10-23T06:25:12.944Z,42.72
2022-10-23T06:27:50.109Z,47.83
2022-10-23T06:30:30.319Z,47.15
2022-10-23T06:33:07.468Z,45.83
2022-10-23T06:35:44.439Z,47.13
2022-10-23T06:38:23.388Z,38.47
2022-10-23T06:41:04.702Z,36.25
2022-10-23T06:43:46.259Z,44.22
2022-10-23T06:46:38.046Z,36.65
2022-10-23T06:49:24.548Z,33.95
2022-10-23T06:52:03.208Z,34.63
2022-10-23T06:54:40.940Z,32.53
2022-10-23T06:57:30.048Z,39.67
2022-10-23T07:00:08.374Z,38.33
2022-10-23T07:02:56.353Z,37.78
2022-10-23T07:05:33.420Z,35.20
2022-10-23T07:08:11.357Z,35.63
2022-10-23T07:10:52.098Z,42.85
2022-10-23T07:13:29.673Z,38.40
2022-10-23T07:16:23.438Z,30.48
2022-10-23T07:19:04.126Z,40.58
2022-10-23T07:21:59.978Z,38.50
2022-10-23T07:24:50.511Z,37.08
2022-10-23T07:27:31.687Z,41.97
2022-10-23T07:30:13.639Z,36.15
2022-10-23T07:32:56.698Z,33.70
2022-10-23T07:35:43.487Z,35.20
2022-10-23T07:38:24.330Z,34.25
2022-10-23T07:41:07.783Z,30.98
2022-10-23T07:43:48.535Z,29.42
2022-10-23T07:46:26.461Z,33.90
2022-10-23T07:49:05.529Z,35.63
2022-10-23T07:51:50.452Z,34.75
2022-10-23T07:54:29.670Z,32.95
2022-10-23T07:57:27.047Z,29.33
2022-10-23T08:00:18.926Z,34.10
2022-10-23T08:03:05.048Z,30.40
2022-10-23T08:05:43.896Z,34.72
2022-10-23T08:08:24.430Z,32.67
2022-10-23T08:11:04.787Z,31.77
2022-10-23T08:13:52.600Z,30.23
2022-10-23T08:16:30.683Z,35.70
2022-10-23T08:19:14.032Z,27.83
2022-10-23T08:21:54.985Z,33.88
2022-10-23T08:24:34.405Z,27.83
2022-10-23T08:27:11.373Z,34.40
2022-10-23T08:29:53.087Z,29.52
2022-10-23T08:32:33.505Z,24.02
2022-10-23T08:35:13.346Z,27.13
2022-10-23T08:37:50.371Z,21.70
2022-10-23T08:40:30.202Z,21.63
2022-10-23T08:43:33.760Z,18.17
2022-10-23T08:46:32.319Z,16.95
2022-10-23T08:49:48.772Z,16.13
2022-10-23T08:52:33.390Z,14.02
2022-10-23T08:55:23.091Z,12.57
2022-10-23T08:58:11.208Z,13.27
2022-10-23T09:00:52.919Z,12.85
2022-10-23T09:03:30.295Z,11.65
2022-10-23T09:06:19.347Z,11.95
2022-10-23T09:09:08.553Z,16.58
2022-10-23T09:11:53.281Z,10.43
2022-10-23T09:14:58.783Z,9.90
2022-10-23T09:17:39.482Z,9.07
2022-10-23T09:20:24.729Z,11.15
2022-10-23T09:23:04.985Z,11.02
2022-10-23T09:25:44.879Z,9.93
2022-10-23T09:28:25.904Z,11.18
2022-10-23T09:31:15.157Z,11.15
2022-10-23T09:34:00.077Z,8.43
2022-10-23T09:36:37.638Z,9.02
2022-10-23T09:39:27.708Z,8.25
2022-10-23T09:42:24.128Z,6.45
2022-10-23T09:45:02.216Z,7.38
2022-10-23T09:47:42.092Z,7.40
2022-10-23T09:50:24.678Z,6.60
2022-10-23T09:53:01.860Z,10.52
2022-10-23T09:55:39.238Z,6.88
2022-10-23T09:58:26.718Z,5.55
2022-10-23T10:01:04.675Z,6.22
2022-10-23T10:04:00.115Z,6.00
2022-10-23T10:06:38.231Z,5.35
2022-10-23T10:09:18.497Z,5.30
2022-10-23T10:12:00.438Z,5.90
2022-10-23T10:15:05.408Z,5.82
2022-10-23T10:17:50.948Z,7.35
2022-10-23T10:21:01.325Z,4.22
2022-10-23T10:23:50.678Z,6.45
2022-10-23T10:26:41.729Z,5.10
2022-10-23T10:29:33.761Z,4.35
2022-10-23T10:32:27.708Z,3.00
2022-10-23T10:35:26.702Z,3.95
2022-10-23T10:38:28.593Z,4.05
2022-10-23T10:41:48.189Z,5.68
2022-10-23T10:44:49.862Z,5.50
2022-10-23T10:47:34.066Z,4.82
2022-10-23T10:50:22.747Z,3.72
2022-10-23T10:53:28.927Z,4.30
2022-10-23T10:56:14.840Z,8.20
2022-10-23T10:58:56.920Z,6.22
2022-10-23T11:01:41.414Z,7.03
2022-10-23T11:04:33.105Z,5.95
2022-10-23T11:07:14.965Z,9.10
2022-10-23T11:09:55.475Z,4.87
2022-10-23T11:12:32.734Z,3.30
2022-10-23T11:15:18.515Z,3.92
2022-10-23T11:18:00.334Z,5.00
2022-10-23T11:20:57.300Z,5.78
2022-10-23T11:24:24.698Z,10.93
2022-10-23T11:27:22.003Z,5.45
2022-10-23T11:30:22.501Z,3.25
2022-10-23T11:33:42.589Z,4.95
2022-10-23T11:36:24.182Z,4.43
2022-10-23T11:39:19.282Z,7.40
2022-10-23T11:41:59.542Z,3.85
2022-10-23T11:44:50.494Z,3.80
2022-10-23T11:47:40.406Z,5.07
2022-10-23T11:50:31.802Z,7.90
2022-10-23T11:53:26.335Z,6.80
2022-10-23T11:56:07.244Z,6.07
2022-10-23T11:58:51.175Z,4.28
2022-10-23T12:01:45.947Z,7.93
2022-10-23T12:04:29.594Z,5.13
2022-10-23T12:07:19.996Z,4.35
2022-10-23T12:10:01.133Z,4.47
2022-10-23T12:12:43.757Z,3.20
2022-10-23T12:15:27.756Z,7.40
2022-10-23T12:18:20.146Z,5.55
2022-10-23T12:21:00.685Z,5.40
2022-10-23T12:24:13.754Z,4.40
2022-10-23T12:27:05.066Z,6.25
2022-10-23T12:30:17.773Z,5.25
2022-10-23T12:33:17.893Z,4.53
2022-10-23T12:36:31.822Z,4.43
2022-10-23T12:39:31.525Z,5.00
2022-10-23T12:42:14.553Z,6.30
2022-10-23T12:45:03.035Z,4.15
2022-10-23T12:47:40.748Z,5.72
2022-10-23T12:50:29.495Z,8.27
2022-10-23T12:53:10.151Z,5.25
2022-10-23T12:55:54.910Z,4.13
2022-10-23T12:58:36.097Z,7.47
2022-10-23T13:01:28.344Z,3.78
2022-10-23T13:04:20.186Z,3.85
2022-10-23T13:07:02.339Z,2.55
2022-10-23T13:09:45.094Z,5.55
2022-10-23T13:12:48.349Z,5.07
2022-10-23T13:15:27.747Z,11.57
2022-10-23T13:18:07.746Z,4.63
2022-10-23T13:20:47.608Z,5.63
2022-10-23T13:23:35.241Z,3.83
2022-10-23T13:26:34.928Z,5.88
2022-10-23T13:32:14.268Z,5.28
2022-10-23T13:35:04.118Z,2.92
2022-10-23T13:37:48.717Z,5.38
2022-10-23T13:40:31.396Z,4.50
2022-10-23T13:43:20.644Z,7.07
2022-10-23T13:45:57.627Z,6.55
2022-10-23T13:48:35.412Z,5.45
2022-10-23T13:51:18.312Z,3.42
2022-10-23T13:56:43.751Z,6.60
2022-10-23T13:59:23.410Z,2.38
2022-10-23T14:02:01.202Z,3.92
2022-10-23T14:04:38.932Z,3.92
2022-10-23T14:07:16.022Z,4.32
2022-10-23T14:09:55.090Z,2.40
2022-10-23T14:12:35.648Z,6.65
2022-10-23T14:15:16.391Z,4.68
2022-10-23T14:17:58.935Z,5.18
2022-10-23T14:20:38.557Z,4.53
2022-10-23T14:23:20.300Z,4.63
2022-10-23T14:25:59.210Z,4.53
2022-10-23T14:28:40.808Z,2.30
2022-10-23T14:31:21.110Z,4.57
2022-10-23T14:34:02.020Z,4.88
2022-10-23T14:36:49.733Z,5.00
2022-10-23T14:39:28.161Z,2.80
2022-10-23T14:42:05.982Z,5.80
2022-10-23T14:44:47.148Z,3.88
2022-10-23T14:47:24.750Z,3.97
2022-10-23T14:50:07.016Z,5.60
2022-10-23T14:52:46.549Z,5.20
2022-10-23T14:55:27.507Z,6.68
2022-10-23T14:58:13.660Z,3.67
2022-10-23T15:01:05.808Z,4.43
2022-10-23T15:03:45.005Z,4.75
2022-10-23T15:06:26.635Z,7.47
2022-10-23T15:09:09.555Z,8.98
2022-10-23T15:11:54.512Z,4.55
2022-10-23T15:14:34.615Z,4.53
2022-10-23T15:17:15.550Z,4.53
2022-10-23T15:22:38.892Z,6.97
2022-10-23T15:25:18.244Z,3.55
2022-10-23T15:28:00.552Z,7.35
2022-10-23T15:30:44.124Z,5.03
2022-10-23T15:33:29.014Z,7.63
2022-10-23T15:36:06.247Z,10.25
2022-10-23T15:38:52.967Z,9.70
2022-10-23T15:41:41.035Z,7.55
2022-10-23T15:44:32.477Z,14.55
2022-10-23T15:47:14.949Z,11.68
2022-10-23T15:50:03.937Z,9.43
2022-10-23T15:52:46.932Z,10.27
2022-10-23T15:55:36.077Z,13.70
2022-10-23T15:58:18.515Z,13.70
2022-10-23T16:00:56.984Z,14.82
2022-10-23T16:03:43.595Z,13.45
2022-10-23T16:06:34.656Z,14.85
2022-10-23T16:09:23.969Z,14.13
2022-10-23T16:12:06.363Z,15.00
2022-10-23T16:14:52.006Z,15.27
2022-10-23T16:17:40.158Z,15.35
2022-10-23T16:20:23.222Z,15.27
2022-10-23T16:23:05.364Z,15.13
2022-10-23T16:25:44.496Z,16.83
2022-10-23T16:28:22.972Z,16.45
2022-10-23T16:31:02.812Z,19.67
2022-10-23T16:33:40.379Z,19.13
2022-10-23T16:36:17.895Z,16.67
2022-10-23T16:39:25.896Z,15.13
2022-10-23T16:42:42.525Z,18.40
2022-10-23T16:45:25.079Z,18.00
2022-10-23T16:48:02.732Z,18.57
2022-10-23T16:50:43.230Z,18.23
2022-10-23T16:53:22.798Z,19.27
2022-10-23T16:56:03.989Z,20.17
2022-10-23T16:58:47.436Z,15.80
2022-10-23T17:01:27.534Z,17.15
2022-10-23T17:04:05.946Z,17.47
2022-10-23T17:06:44.996Z,21.07
2022-10-23T17:09:25.637Z,15.43
2022-10-23T17:12:05.664Z,18.60
2022-10-23T17:14:44.838Z,20.80
2022-10-23T17:17:23.476Z,20.67
2022-10-23T17:20:01.699Z,22.53
2022-10-23T17:22:40.357Z,24.13
2022-10-23T17:25:18.315Z,25.53
2022-10-23T17:27:58.507Z,29.23
2022-10-23T17:30:41.005Z,27.50
2022-10-23T17:33:23.396Z,27.57
2022-10-23T17:36:05.998Z,30.60
2022-10-23T17:38:45.188Z,26.47
2022-10-23T17:41:26.668Z,24.40
2022-10-23T17:44:09.117Z,23.77
2022-10-23T17:46:50.436Z,24.40
2022-10-23T17:49:28.775Z,32.10
2022-10-23T17:52:10.956Z,27.67
2022-10-23T17:54:50.745Z,25.87
2022-10-23T17:57:29.038Z,29.53
2022-10-23T18:00:13.580Z,27.60
2022-10-23T18:02:50.786Z,23.07
2022-10-23T18:05:28.472Z,34.23
2022-10-23T18:08:06.868Z,33.50
2022-10-23T18:10:44.808Z,40.43
2022-10-23T18:13:25.328Z,39.83
2022-10-23T18:16:11.641Z,37.33
2022-10-23T18:18:52.732Z,42.33
2022-10-23T18:21:31.780Z,38.73
2022-10-23T18:24:11.981Z,29.70
2022-10-23T18:26:51.139Z,29.50
2022-10-23T18:29:29.171Z,36.83
2022-10-23T18:32:18.289Z,29.43
2022-10-23T18:34:56.421Z,29.70
2022-10-23T18:37:38.983Z,33.27
2022-10-23T18:40:23.126Z,31.37
2022-10-23T18:45:47.572Z,28.30
2022-10-23T18:48:28.089Z,25.03
2022-10-23T18:51:05.801Z,24.33
2022-10-23T18:53:43.789Z,24.53
2022-10-23T18:56:25.251Z,28.73
2022-10-23T19:02:16.287Z,27.60
2022-10-23T19:05:01.248Z,27.43
2022-10-23T19:07:39.698Z,28.07
2022-10-23T19:10:23.619Z,28.80
2022-10-23T19:13:07.384Z,28.07
2022-10-23T19:15:46.141Z,28.33
2022-10-23T19:18:25.822Z,25.43
2022-10-23T19:21:07.184Z,29.47
2022-10-23T19:23:47.032Z,27.87
2022-10-23T19:26:26.998Z,31.03
2022-10-23T19:29:06.215Z,33.07
2022-10-23T19:31:50.359Z,27.97
2022-10-23T19:34:28.533Z,34.27
2022-10-23T19:37:09.460Z,25.73
2022-10-23T19:39:48.913Z,24.83
2022-10-23T19:42:27.401Z,25.30
2022-10-23T19:45:05.381Z,26.07
2022-10-23T19:47:47.025Z,27.87
2022-10-23T19:50:30.587Z,25.83
2022-10-23T19:55:49.155Z,25.37
2022-10-23T19:58:27.423Z,27.77
2022-10-23T22:20:33.274Z,31.40
2022-10-23T22:23:10.422Z,28.60
2022-10-23T22:25:47.091Z,31.73
2022-10-23T22:28:24.201Z,29.10
2022-10-23T22:31:00.872Z,29.77
2022-10-23T22:33:37.943Z,28.37
